sensor_id;sensor_type;location;lat;lon;timestamp;pressure;altitude;pressure_sealevel;temperature;humidity
69574;BME280;62840;52.366;5.980;2023-04-21T00:00:12;101508.31;;;9.30;64.53
69574;BME280;62840;52.366;5.980;2023-04-21T00:02:38;101486.22;;;9.28;64.69
69574;BME280;62840;52.366;5.980;2023-04-21T00:05:08;101491.66;;;9.27;64.63
69574;BME280;62840;52.366;5.980;2023-04-21T00:07:34;101485.47;;;9.26;64.75
69574;BME280;62840;52.366;5.980;2023-04-21T00:10:07;101485.47;;;9.26;64.94
69574;BME280;62840;52.366;5.980;2023-04-21T00:12:34;101481.88;;;9.27;64.87
69574;BME280;62840;52.366;5.980;2023-04-21T00:14:59;101475.69;;;9.27;65.30
69574;BME280;62840;52.366;5.980;2023-04-21T00:17:27;101471.22;;;9.27;65.08
69574;BME280;62840;52.366;5.980;2023-04-21T00:19:54;101467.59;;;9.28;65.42
69574;BME280;62840;52.366;5.980;2023-04-21T00:22:23;101465.91;;;9.27;65.29
69574;BME280;62840;52.366;5.980;2023-04-21T00:24:48;101456.09;;;9.28;65.46
69574;BME280;62840;52.366;5.980;2023-04-21T00:27:17;101449.06;;;9.27;65.58
69574;BME280;62840;52.366;5.980;2023-04-21T00:29:43;101444.63;;;9.27;65.83
69574;BME280;62840;52.366;5.980;2023-04-21T00:32:11;101446.31;;;9.28;65.72
69574;BME280;62840;52.366;5.980;2023-04-21T00:34:38;101437.41;;;9.29;65.75
69574;BME280;62840;52.366;5.980;2023-04-21T00:37:07;101425.88;;;9.29;66.01
69574;BME280;62840;52.366;5.980;2023-04-21T00:39:36;101428.66;;;9.27;65.81
69574;BME280;62840;52.366;5.980;2023-04-21T00:42:02;101420.56;;;9.29;65.95
69574;BME280;62840;52.366;5.980;2023-04-21T00:44:36;101417.81;;;9.30;66.11
69574;BME280;62840;52.366;5.980;2023-04-21T00:47:03;101419.53;;;9.31;66.00
69574;BME280;62840;52.366;5.980;2023-04-21T00:49:31;101415.16;;;9.30;66.10
69574;BME280;62840;52.366;5.980;2023-04-21T00:52:06;101411.56;;;9.31;66.01
69574;BME280;62840;52.366;5.980;2023-04-21T00:54:35;101414.22;;;9.31;66.02
69574;BME280;62840;52.366;5.980;2023-04-21T00:57:01;101401.75;;;9.32;66.15
69574;BME280;62840;52.366;5.980;2023-04-21T00:59:30;101398.00;;;9.34;66.01
69574;BME280;62840;52.366;5.980;2023-04-21T01:02:02;101400.59;;;9.36;66.34
69574;BME280;62840;52.366;5.980;2023-04-21T01:04:52;101403.13;;;9.37;66.79
69574;BME280;62840;52.366;5.980;2023-04-21T01:07:23;101403.13;;;9.37;66.87
69574;BME280;62840;52.366;5.980;2023-04-21T01:09:52;101407.50;;;9.38;67.12
69574;BME280;62840;52.366;5.980;2023-04-21T01:12:19;101415.28;;;9.41;66.92
69574;BME280;62840;52.366;5.980;2023-04-21T01:14:48;101419.53;;;9.44;66.48
69574;BME280;62840;52.366;5.980;2023-04-21T01:17:14;101406.88;;;9.48;66.84
69574;BME280;62840;52.366;5.980;2023-04-21T01:19:41;101416.34;;;9.52;67.14
69574;BME280;62840;52.366;5.980;2023-04-21T01:22:14;101421.69;;;9.52;67.05
69574;BME280;62840;52.366;5.980;2023-04-21T01:24:49;101409.13;;;9.54;67.15
69574;BME280;62840;52.366;5.980;2023-04-21T01:27:17;101411.66;;;9.55;67.05
69574;BME280;62840;52.366;5.980;2023-04-21T01:29:45;101414.13;;;9.58;67.38
69574;BME280;62840;52.366;5.980;2023-04-21T01:32:20;101412.31;;;9.59;67.37
69574;BME280;62840;52.366;5.980;2023-04-21T01:34:53;101401.56;;;9.60;67.41
69574;BME280;62840;52.366;5.980;2023-04-21T01:37:27;101412.06;;;9.62;67.29
69574;BME280;62840;52.366;5.980;2023-04-21T01:39:58;101401.22;;;9.65;67.43
69574;BME280;62840;52.366;5.980;2023-04-21T01:42:28;101407.19;;;9.69;67.57
69574;BME280;62840;52.366;5.980;2023-04-21T01:44:54;101399.28;;;9.67;67.47
69574;BME280;62840;52.366;5.980;2023-04-21T01:47:25;101406.34;;;9.68;67.45
69574;BME280;62840;52.366;5.980;2023-04-21T01:49:54;101404.41;;;9.70;67.61
69574;BME280;62840;52.366;5.980;2023-04-21T01:52:25;101400.78;;;9.71;67.48
69574;BME280;62840;52.366;5.980;2023-04-21T01:54:51;101393.53;;;9.73;67.64
69574;BME280;62840;52.366;5.980;2023-04-21T01:57:17;101391.63;;;9.75;67.55
69574;BME280;62840;52.366;5.980;2023-04-21T01:59:43;101388.72;;;9.78;67.63
69574;BME280;62840;52.366;5.980;2023-04-21T02:02:09;101389.47;;;9.80;67.59
69574;BME280;62840;52.366;5.980;2023-04-21T02:04:35;101384.03;;;9.82;67.82
69574;BME280;62840;52.366;5.980;2023-04-21T02:07:01;101384.78;;;9.84;67.68
69574;BME280;62840;52.366;5.980;2023-04-21T02:09:34;101385.63;;;9.84;67.53
69574;BME280;62840;52.366;5.980;2023-04-21T02:12:00;101388.19;;;9.86;67.70
69574;BME280;62840;52.366;5.980;2023-04-21T02:14:30;101386.38;;;9.87;67.63
69574;BME280;62840;52.366;5.980;2023-04-21T02:16:59;101383.72;;;9.87;67.47
69574;BME280;62840;52.366;5.980;2023-04-21T02:19:27;101390.78;;;9.88;67.69
69574;BME280;62840;52.366;5.980;2023-04-21T02:21:54;101396.09;;;9.88;67.63
69574;BME280;62840;52.366;5.980;2023-04-21T02:24:20;101391.63;;;9.88;67.52
69574;BME280;62840;52.366;5.980;2023-04-21T02:26:59;101390.53;;;9.91;67.79
69574;BME280;62840;52.366;5.980;2023-04-21T02:29:25;101388.81;;;9.90;67.71
69574;BME280;62840;52.366;5.980;2023-04-21T02:31:56;101385.22;;;9.91;67.57
69574;BME280;62840;52.366;5.980;2023-04-21T02:34:23;101384.22;;;9.92;67.65
69574;BME280;62840;52.366;5.980;2023-04-21T02:36:49;101377.22;;;9.91;67.79
69574;BME280;62840;52.366;5.980;2023-04-21T02:39:15;101378.16;;;9.90;67.87
69574;BME280;62840;52.366;5.980;2023-04-21T02:41:45;101378.16;;;9.90;67.72
69574;BME280;62840;52.366;5.980;2023-04-21T02:44:15;101379.88;;;9.91;67.95
69574;BME280;62840;52.366;5.980;2023-04-21T02:46:43;101377.13;;;9.92;67.96
69574;BME280;62840;52.366;5.980;2023-04-21T02:49:13;101383.28;;;9.93;67.92
69574;BME280;62840;52.366;5.980;2023-04-21T02:51:45;101380.63;;;9.93;68.00
69574;BME280;62840;52.366;5.980;2023-04-21T02:54:14;101379.66;;;9.94;68.19
69574;BME280;62840;52.366;5.980;2023-04-21T02:56:43;101385.84;;;9.94;68.24
69574;BME280;62840;52.366;5.980;2023-04-21T02:59:09;101386.69;;;9.95;68.27
69574;BME280;62840;52.366;5.980;2023-04-21T03:01:40;101393.72;;;9.96;68.14
69574;BME280;62840;52.366;5.980;2023-04-21T03:04:05;101390.13;;;9.97;68.33
69574;BME280;62840;52.366;5.980;2023-04-21T03:06:34;101397.03;;;9.99;68.25
69574;BME280;62840;52.366;5.980;2023-04-21T03:09:01;101396.91;;;10.01;68.02
69574;BME280;62840;52.366;5.980;2023-04-21T03:11:28;101396.81;;;10.02;68.19
69574;BME280;62840;52.366;5.980;2023-04-21T03:13:54;101398.63;;;10.02;68.03
69574;BME280;62840;52.366;5.980;2023-04-21T03:16:21;101405.63;;;10.03;68.01
69574;BME280;62840;52.366;5.980;2023-04-21T03:18:56;101408.31;;;10.03;67.93
69574;BME280;62840;52.366;5.980;2023-04-21T03:21:24;101406.50;;;10.03;68.18
69574;BME280;62840;52.366;5.980;2023-04-21T03:23:54;101416.28;;;10.03;68.30
69574;BME280;62840;52.366;5.980;2023-04-21T03:26:19;101416.28;;;10.03;68.21
69574;BME280;62840;52.366;5.980;2023-04-21T03:28:45;101419.94;;;10.02;68.40
69574;BME280;62840;52.366;5.980;2023-04-21T03:31:13;101423.53;;;10.01;68.33
69574;BME280;62840;52.366;5.980;2023-04-21T03:33:50;101426.34;;;9.99;68.16
69574;BME280;62840;52.366;5.980;2023-04-21T03:36:16;101419.41;;;9.97;68.37
69574;BME280;62840;52.366;5.980;2023-04-21T03:38:43;101415.03;;;9.96;68.20
69574;BME280;62840;52.366;5.980;2023-04-21T03:41:09;101413.34;;;9.95;68.20
69574;BME280;62840;52.366;5.980;2023-04-21T03:43:39;101406.53;;;9.91;68.13
69574;BME280;62840;52.366;5.980;2023-04-21T03:46:06;101412.09;;;9.88;68.31
69574;BME280;62840;52.366;5.980;2023-04-21T03:48:32;101394.59;;;9.83;68.39
69574;BME280;62840;52.366;5.980;2023-04-21T03:51:11;101387.56;;;9.82;68.18
69574;BME280;62840;52.366;5.980;2023-04-21T03:53:39;101382.22;;;9.82;68.29
69574;BME280;62840;52.366;5.980;2023-04-21T03:56:06;101389.47;;;9.80;68.17
69574;BME280;62840;52.366;5.980;2023-04-21T03:58:32;101400.13;;;9.80;68.32
69574;BME280;62840;52.366;5.980;2023-04-21T04:00:58;101386.06;;;9.78;68.17
69574;BME280;62840;52.366;5.980;2023-04-21T04:03:24;101390.69;;;9.76;68.13
69574;BME280;62840;52.366;5.980;2023-04-21T04:05:51;101393.34;;;9.76;68.18
69574;BME280;62840;52.366;5.980;2023-04-21T04:08:31;101389.94;;;9.74;67.89
69574;BME280;62840;52.366;5.980;2023-04-21T04:10:59;101398.88;;;9.73;67.92
69574;BME280;62840;52.366;5.980;2023-04-21T04:13:24;101390.88;;;9.73;68.17
69574;BME280;62840;52.366;5.980;2023-04-21T04:15:51;101381.19;;;9.72;68.19
69574;BME280;62840;52.366;5.980;2023-04-21T04:18:23;101375.88;;;9.72;68.27
69574;BME280;62840;52.366;5.980;2023-04-21T04:20:53;101382.88;;;9.73;68.28
69574;BME280;62840;52.366;5.980;2023-04-21T04:23:25;101384.59;;;9.74;68.31
69574;BME280;62840;52.366;5.980;2023-04-21T04:25:50;101373.94;;;9.74;68.49
69574;BME280;62840;52.366;5.980;2023-04-21T04:28:25;101381.81;;;9.76;68.26
69574;BME280;62840;52.366;5.980;2023-04-21T04:30:53;101379.03;;;9.77;68.37
69574;BME280;62840;52.366;5.980;2023-04-21T04:33:21;101378.81;;;9.80;68.35
69574;BME280;62840;52.366;5.980;2023-04-21T04:35:47;101378.81;;;9.80;68.29
69574;BME280;62840;52.366;5.980;2023-04-21T04:38:13;101388.63;;;9.80;68.32
69574;BME280;62840;52.366;5.980;2023-04-21T04:40:45;101382.47;;;9.79;68.24
69574;BME280;62840;52.366;5.980;2023-04-21T04:43:24;101395.78;;;9.79;68.38
69574;BME280;62840;52.366;5.980;2023-04-21T04:45:51;101386.06;;;9.78;68.52
69574;BME280;62840;52.366;5.980;2023-04-21T04:48:19;101380.72;;;9.78;68.66
69574;BME280;62840;52.366;5.980;2023-04-21T04:50:47;101384.38;;;9.77;68.65
69574;BME280;62840;52.366;5.980;2023-04-21T04:53:13;101386.06;;;9.78;68.69
69574;BME280;62840;52.366;5.980;2023-04-21T04:55:41;101386.06;;;9.78;68.68
69574;BME280;62840;52.366;5.980;2023-04-21T04:58:39;101386.06;;;9.78;68.69
69574;BME280;62840;52.366;5.980;2023-04-21T05:01:13;101383.31;;;9.80;68.63
69574;BME280;62840;52.366;5.980;2023-04-21T05:03:39;101388.53;;;9.81;68.56
69574;BME280;62840;52.366;5.980;2023-04-21T05:06:05;101393.97;;;9.80;68.50
69574;BME280;62840;52.366;5.980;2023-04-21T05:08:32;101393.09;;;9.79;68.79
69574;BME280;62840;52.366;5.980;2023-04-21T05:11:00;101396.72;;;9.78;68.84
69574;BME280;62840;52.366;5.980;2023-04-21T05:13:26;101396.72;;;9.78;68.78
69574;BME280;62840;52.366;5.980;2023-04-21T05:15:58;101407.19;;;9.81;68.93
69574;BME280;62840;52.366;5.980;2023-04-21T05:18:33;101398.22;;;9.82;68.95
69574;BME280;62840;52.366;5.980;2023-04-21T05:21:01;101404.28;;;9.84;68.79
69574;BME280;62840;52.366;5.980;2023-04-21T05:23:37;101400.69;;;9.86;69.07
69574;BME280;62840;52.366;5.980;2023-04-21T05:26:02;101394.38;;;9.87;69.20
69574;BME280;62840;52.366;5.980;2023-04-21T05:28:29;101396.09;;;9.88;69.18
69574;BME280;62840;52.366;5.980;2023-04-21T05:30:58;101395.13;;;9.89;68.85
69574;BME280;62840;52.366;5.980;2023-04-21T05:33:24;101389.69;;;9.90;69.13
69574;BME280;62840;52.366;5.980;2023-04-21T05:35:51;101395.63;;;9.94;69.08
69574;BME280;62840;52.366;5.980;2023-04-21T05:38:17;101407.03;;;9.96;69.13
69574;BME280;62840;52.366;5.980;2023-04-21T05:40:43;101410.56;;;9.96;69.25
69574;BME280;62840;52.366;5.980;2023-04-21T05:43:08;101414.09;;;9.97;69.31
69574;BME280;62840;52.366;5.980;2023-04-21T05:45:39;101414.09;;;9.97;69.26
69574;BME280;62840;52.366;5.980;2023-04-21T05:48:11;101414.09;;;9.97;69.27
69574;BME280;62840;52.366;5.980;2023-04-21T05:50:37;101420.88;;;10.01;69.30
69574;BME280;62840;52.366;5.980;2023-04-21T05:53:03;101419.09;;;10.01;69.34
69574;BME280;62840;52.366;5.980;2023-04-21T05:55:35;101419.94;;;10.02;69.29
69574;BME280;62840;52.366;5.980;2023-04-21T05:58:01;101432.28;;;10.03;69.28
69574;BME280;62840;52.366;5.980;2023-04-21T06:00:27;101422.38;;;10.05;69.45
69574;BME280;62840;52.366;5.980;2023-04-21T06:02:56;101423.25;;;10.06;69.44
69574;BME280;62840;52.366;5.980;2023-04-21T06:05:25;101420.59;;;10.06;69.69
69574;BME280;62840;52.366;5.980;2023-04-21T06:07:53;101421.44;;;10.06;69.48
69574;BME280;62840;52.366;5.980;2023-04-21T06:10:21;101423.13;;;10.07;69.52
69574;BME280;62840;52.366;5.980;2023-04-21T06:12:47;101421.19;;;10.09;69.82
69574;BME280;62840;52.366;5.980;2023-04-21T06:15:13;101417.34;;;10.13;69.59
69574;BME280;62840;52.366;5.980;2023-04-21T06:17:39;101403.94;;;10.15;69.45
69574;BME280;62840;52.366;5.980;2023-04-21T06:20:13;101403.06;;;10.14;69.70
69574;BME280;62840;52.366;5.980;2023-04-21T06:22:48;101403.06;;;10.14;69.67
69574;BME280;62840;52.366;5.980;2023-04-21T06:25:14;101404.78;;;10.15;69.75
69574;BME280;62840;52.366;5.980;2023-04-21T06:27:40;101399.44;;;10.15;69.80
69574;BME280;62840;52.366;5.980;2023-04-21T06:30:10;101402.00;;;10.17;70.00
69574;BME280;62840;52.366;5.980;2023-04-21T06:32:37;101393.13;;;10.16;69.90
69574;BME280;62840;52.366;5.980;2023-04-21T06:35:04;101396.53;;;10.18;69.92
69574;BME280;62840;52.366;5.980;2023-04-21T06:37:32;101395.59;;;10.19;69.74
69574;BME280;62840;52.366;5.980;2023-04-21T06:40:02;101398.13;;;10.21;69.96
69574;BME280;62840;52.366;5.980;2023-04-21T06:42:39;101402.38;;;10.23;69.93
69574;BME280;62840;52.366;5.980;2023-04-21T06:45:10;101396.09;;;10.24;69.92
69574;BME280;62840;52.366;5.980;2023-04-21T06:47:38;101396.84;;;10.27;70.02
69574;BME280;62840;52.366;5.980;2023-04-21T06:50:05;101402.19;;;10.27;69.90
69574;BME280;62840;52.366;5.980;2023-04-21T06:52:34;101391.41;;;10.28;70.06
69574;BME280;62840;52.366;5.980;2023-04-21T06:55:04;101400.25;;;10.29;70.03
69574;BME280;62840;52.366;5.980;2023-04-21T06:57:38;101410.94;;;10.29;70.13
69574;BME280;62840;52.366;5.980;2023-04-21T07:00:08;101416.25;;;10.29;70.13
69574;BME280;62840;52.366;5.980;2023-04-21T07:02:35;101413.59;;;10.29;70.27
69574;BME280;62840;52.366;5.980;2023-04-21T07:05:01;101409.94;;;10.30;70.28
69574;BME280;62840;52.366;5.980;2023-04-21T07:07:27;101403.66;;;10.31;70.19
69574;BME280;62840;52.366;5.980;2023-04-21T07:09:53;101401.94;;;10.30;70.16
69574;BME280;62840;52.366;5.980;2023-04-21T07:12:26;101403.66;;;10.31;70.30
69574;BME280;62840;52.366;5.980;2023-04-21T07:14:54;101404.41;;;10.33;70.07
69574;BME280;62840;52.366;5.980;2023-04-21T07:17:20;101399.78;;;10.35;70.24
69574;BME280;62840;52.366;5.980;2023-04-21T07:19:51;101394.47;;;10.35;70.29
69574;BME280;62840;52.366;5.980;2023-04-21T07:22:18;101409.50;;;10.36;70.22
69574;BME280;62840;52.366;5.980;2023-04-21T07:24:44;101399.59;;;10.38;70.20
69574;BME280;62840;52.366;5.980;2023-04-21T07:27:10;101397.88;;;10.37;70.48
69574;BME280;62840;52.366;5.980;2023-04-21T07:29:41;101406.84;;;10.36;70.39
69574;BME280;62840;52.366;5.980;2023-04-21T07:32:08;101406.63;;;10.39;70.24
69574;BME280;62840;52.366;5.980;2023-04-21T07:34:42;101407.50;;;10.39;70.47
69574;BME280;62840;52.366;5.980;2023-04-21T07:37:11;101403.09;;;10.38;70.59
69574;BME280;62840;52.366;5.980;2023-04-21T07:39:40;101395.94;;;10.39;70.61
69574;BME280;62840;52.366;5.980;2023-04-21T07:42:08;101402.03;;;10.41;70.69
69574;BME280;62840;52.366;5.980;2023-04-21T07:44:39;101402.56;;;10.46;70.66
69574;BME280;62840;52.366;5.980;2023-04-21T07:47:05;101404.25;;;10.47;70.71
69574;BME280;62840;52.366;5.980;2023-04-21T07:49:36;101404.00;;;10.50;70.67
69574;BME280;62840;52.366;5.980;2023-04-21T07:52:05;101400.41;;;10.51;70.68
69574;BME280;62840;52.366;5.980;2023-04-21T07:54:32;101406.47;;;10.53;70.61
69574;BME280;62840;52.366;5.980;2023-04-21T07:56:58;101398.22;;;10.56;70.78
69574;BME280;62840;52.366;5.980;2023-04-21T07:59:29;101398.97;;;10.58;70.81
69574;BME280;62840;52.366;5.980;2023-04-21T08:02:02;101395.13;;;10.62;70.57
69574;BME280;62840;52.366;5.980;2023-04-21T08:04:29;101402.03;;;10.65;70.79
69574;BME280;62840;52.366;5.980;2023-04-21T08:06:55;101400.97;;;10.67;70.61
69574;BME280;62840;52.366;5.980;2023-04-21T08:09:21;101399.03;;;10.70;70.88
69574;BME280;62840;52.366;5.980;2023-04-21T08:11:47;101406.06;;;10.71;70.76
69574;BME280;62840;52.366;5.980;2023-04-21T08:14:16;101402.44;;;10.72;70.69
69574;BME280;62840;52.366;5.980;2023-04-21T08:16:42;101405.00;;;10.73;70.75
69574;BME280;62840;52.366;5.980;2023-04-21T08:19:15;101402.19;;;10.75;70.93
69574;BME280;62840;52.366;5.980;2023-04-21T08:21:40;101400.28;;;10.77;70.96
69574;BME280;62840;52.366;5.980;2023-04-21T08:24:11;101399.09;;;10.81;70.74
69574;BME280;62840;52.366;5.980;2023-04-21T08:26:39;101394.47;;;10.83;70.94
69574;BME280;62840;52.366;5.980;2023-04-21T08:29:07;101397.88;;;10.85;71.03
69574;BME280;62840;52.366;5.980;2023-04-21T08:31:33;101402.06;;;10.89;70.75
69574;BME280;62840;52.366;5.980;2023-04-21T08:34:01;101400.13;;;10.91;70.60
69574;BME280;62840;52.366;5.980;2023-04-21T08:36:36;101407.91;;;10.94;70.77
69574;BME280;62840;52.366;5.980;2023-04-21T08:39:03;101407.66;;;10.97;70.98
69574;BME280;62840;52.366;5.980;2023-04-21T08:41:31;101402.13;;;11.00;70.94
69574;BME280;62840;52.366;5.980;2023-04-21T08:43:56;101407.22;;;11.03;70.92
69574;BME280;62840;52.366;5.980;2023-04-21T08:46:30;101403.34;;;11.07;70.58
69574;BME280;62840;52.366;5.980;2023-04-21T08:48:58;101398.50;;;11.13;71.02
69574;BME280;62840;52.366;5.980;2023-04-21T08:51:31;101399.97;;;11.17;70.97
69574;BME280;62840;52.366;5.980;2023-04-21T08:53:57;101402.41;;;11.20;70.87
69574;BME280;62840;52.366;5.980;2023-04-21T08:56:23;101398.53;;;11.24;70.91
69574;BME280;62840;52.366;5.980;2023-04-21T08:58:53;101399.03;;;11.29;71.31
69574;BME280;62840;52.366;5.980;2023-04-21T09:01:21;101398.56;;;11.35;70.83
69574;BME280;62840;52.366;5.980;2023-04-21T09:03:47;101398.19;;;11.40;70.94
69574;BME280;62840;52.366;5.980;2023-04-21T09:06:13;101401.50;;;11.43;70.81
69574;BME280;62840;52.366;5.980;2023-04-21T09:08:55;101392.13;;;11.49;70.95
69574;BME280;62840;52.366;5.980;2023-04-21T09:11:23;101398.09;;;11.53;70.94
69574;BME280;62840;52.366;5.980;2023-04-21T09:13:49;101385.50;;;11.55;71.01
69574;BME280;62840;52.366;5.980;2023-04-21T09:16:23;101401.25;;;11.58;70.72
69574;BME280;62840;52.366;5.980;2023-04-21T09:18:57;101395.44;;;11.64;70.73
69574;BME280;62840;52.366;5.980;2023-04-21T09:21:27;101394.25;;;11.68;70.63
69574;BME280;62840;52.366;5.980;2023-04-21T09:23:56;101391.31;;;11.71;70.56
69574;BME280;62840;52.366;5.980;2023-04-21T09:26:24;101391.06;;;11.74;70.69
69574;BME280;62840;52.366;5.980;2023-04-21T09:28:54;101398.72;;;11.79;70.71
69574;BME280;62840;52.366;5.980;2023-04-21T09:31:35;101391.31;;;11.82;70.43
69574;BME280;62840;52.366;5.980;2023-04-21T09:34:00;101392.66;;;11.88;70.53
69574;BME280;62840;52.366;5.980;2023-04-21T09:36:40;101393.25;;;11.91;70.38
69574;BME280;62840;52.366;5.980;2023-04-21T09:39:11;101387.44;;;11.98;70.57
69574;BME280;62840;52.366;5.980;2023-04-21T09:41:45;101390.69;;;12.01;70.09
69574;BME280;62840;52.366;5.980;2023-04-21T09:44:33;101386.94;;;12.04;70.65
69574;BME280;62840;52.366;5.980;2023-04-21T09:47:00;101377.94;;;12.05;70.41
69574;BME280;62840;52.366;5.980;2023-04-21T09:49:28;101379.13;;;12.12;70.71
69574;BME280;62840;52.366;5.980;2023-04-21T09:51:56;101367.97;;;12.18;70.75
69574;BME280;62840;52.366;5.980;2023-04-21T09:57:16;101374.78;;;12.33;70.26
69574;BME280;62840;52.366;5.980;2023-04-21T09:59:55;101375.97;;;12.41;70.37
69574;BME280;62840;52.366;5.980;2023-04-21T10:02:29;101375.47;;;12.47;70.09
69574;BME280;62840;52.366;5.980;2023-04-21T10:04:58;101382.00;;;12.54;70.10
69574;BME280;62840;52.366;5.980;2023-04-21T10:07:31;101370.09;;;12.58;70.46
69574;BME280;62840;52.366;5.980;2023-04-21T10:10:01;101369.56;;;12.64;70.00
69574;BME280;62840;52.366;5.980;2023-04-21T10:12:34;101372.72;;;12.69;69.88
69574;BME280;62840;52.366;5.980;2023-04-21T10:15:03;101373.16;;;12.74;69.96
69574;BME280;62840;52.366;5.980;2023-04-21T10:17:53;101372.19;;;12.75;69.79
69574;BME280;62840;52.366;5.980;2023-04-21T10:20:51;101363.19;;;12.77;69.73
69574;BME280;62840;52.366;5.980;2023-04-21T10:23:31;101375.84;;;12.74;69.41
69574;BME280;62840;52.366;5.980;2023-04-21T10:26:13;101372.19;;;12.75;69.43
69574;BME280;62840;52.366;5.980;2023-04-21T10:28:52;101373.06;;;12.76;69.59
69574;BME280;62840;52.366;5.980;2023-04-21T10:31:32;101379.25;;;12.77;69.37
69574;BME280;62840;52.366;5.980;2023-04-21T10:34:15;101371.94;;;12.79;69.36
69574;BME280;62840;52.366;5.980;2023-04-21T10:37:07;101361.47;;;12.75;69.11
69574;BME280;62840;52.366;5.980;2023-04-21T10:39:36;101365.16;;;12.74;69.44
69574;BME280;62840;52.366;5.980;2023-04-21T10:42:27;101366.81;;;12.75;68.95
69574;BME280;62840;52.366;5.980;2023-04-21T10:45:10;101360.63;;;12.75;69.02
69574;BME280;62840;52.366;5.980;2023-04-21T10:47:43;101356.38;;;12.72;68.97
69574;BME280;62840;52.366;5.980;2023-04-21T10:50:24;101357.13;;;12.74;68.69
69574;BME280;62840;52.366;5.980;2023-04-21T10:52:55;101350.78;;;12.75;68.94
69574;BME280;62840;52.366;5.980;2023-04-21T10:55:27;101345.19;;;12.79;68.76
69574;BME280;62840;52.366;5.980;2023-04-21T10:58:02;101342.94;;;12.84;68.91
69574;BME280;62840;52.366;5.980;2023-04-21T11:00:30;101340.72;;;12.89;68.79
69574;BME280;62840;52.366;5.980;2023-04-21T11:02:59;101334.88;;;12.95;69.21
69574;BME280;62840;52.366;5.980;2023-04-21T11:05:35;101325.31;;;13.02;68.55
69574;BME280;62840;52.366;5.980;2023-04-21T11:08:05;101323.81;;;13.09;68.80
69574;BME280;62840;52.366;5.980;2023-04-21T11:10:51;101328.66;;;13.15;68.78
69574;BME280;62840;52.366;5.980;2023-04-21T11:13:26;101331.66;;;13.22;68.82
69574;BME280;62840;52.366;5.980;2023-04-21T11:15:59;101322.97;;;13.30;68.25
69574;BME280;62840;52.366;5.980;2023-04-21T11:18:33;101312.94;;;13.32;68.21
69574;BME280;62840;52.366;5.980;2023-04-21T11:21:09;101304.66;;;13.35;67.69
69574;BME280;62840;52.366;5.980;2023-04-21T11:23:42;101305.38;;;13.37;67.89
69574;BME280;62840;52.366;5.980;2023-04-21T11:26:16;101307.50;;;13.43;68.06
69574;BME280;62840;52.366;5.980;2023-04-21T11:28:48;101304.44;;;13.48;68.37
69574;BME280;62840;52.366;5.980;2023-04-21T11:31:16;101309.41;;;13.52;68.29
69574;BME280;62840;52.366;5.980;2023-04-21T11:33:42;101308.16;;;13.56;67.93
69574;BME280;62840;52.366;5.980;2023-04-21T11:36:11;101302.53;;;13.60;68.17
69574;BME280;62840;52.366;5.980;2023-04-21T11:38:40;101297.75;;;13.63;67.93
69574;BME280;62840;52.366;5.980;2023-04-21T11:41:09;101297.75;;;13.63;68.08
69574;BME280;62840;52.366;5.980;2023-04-21T11:43:35;101298.63;;;13.64;68.05
69574;BME280;62840;52.366;5.980;2023-04-21T11:46:22;101289.44;;;13.66;68.12
69574;BME280;62840;52.366;5.980;2023-04-21T11:49:00;101296.38;;;13.69;67.95
69574;BME280;62840;52.366;5.980;2023-04-21T11:51:31;101283.69;;;13.71;68.00
69574;BME280;62840;52.366;5.980;2023-04-21T11:53:58;101287.78;;;13.75;68.14
69574;BME280;62840;52.366;5.980;2023-04-21T11:56:24;101277.75;;;13.77;68.29
69574;BME280;62840;52.366;5.980;2023-04-21T11:58:54;101272.25;;;13.78;68.34
69574;BME280;62840;52.366;5.980;2023-04-21T12:01:23;101271.00;;;13.83;68.06
69574;BME280;62840;52.366;5.980;2023-04-21T12:03:57;101277.78;;;13.87;67.79
69574;BME280;62840;52.366;5.980;2023-04-21T12:06:26;101271.44;;;13.88;67.79
69574;BME280;62840;52.366;5.980;2023-04-21T12:09:01;101270.31;;;13.90;68.27
69574;BME280;62840;52.366;5.980;2023-04-21T12:11:31;101259.31;;;13.93;68.09
69574;BME280;62840;52.366;5.980;2023-04-21T12:13:59;101257.34;;;13.95;68.18
69574;BME280;62840;52.366;5.980;2023-04-21T12:16:28;101261.47;;;13.99;68.19
69574;BME280;62840;52.366;5.980;2023-04-21T12:18:56;101261.16;;;14.03;67.79
69574;BME280;62840;52.366;5.980;2023-04-21T12:21:28;101254.25;;;14.10;68.23
69574;BME280;62840;52.366;5.980;2023-04-21T12:23:55;101253.00;;;14.14;67.08
69574;BME280;62840;52.366;5.980;2023-04-21T12:26:21;101248.03;;;14.19;67.12
69574;BME280;62840;52.366;5.980;2023-04-21T12:28:50;101251.31;;;14.23;67.21
69574;BME280;62840;52.366;5.980;2023-04-21T12:31:21;101253.81;;;14.24;67.22
69574;BME280;62840;52.366;5.980;2023-04-21T12:33:50;101254.97;;;14.31;67.76
69574;BME280;62840;52.366;5.980;2023-04-21T12:36:16;101250.75;;;14.38;67.29
69574;BME280;62840;52.366;5.980;2023-04-21T12:38:42;101249.88;;;14.48;67.25
69574;BME280;62840;52.366;5.980;2023-04-21T12:41:14;101247.34;;;14.56;66.96
69574;BME280;62840;52.366;5.980;2023-04-21T12:43:43;101237.72;;;14.63;66.50
69574;BME280;62840;52.366;5.980;2023-04-21T12:46:13;101236.16;;;14.70;66.71
69574;BME280;62840;52.366;5.980;2023-04-21T12:48:44;101234.75;;;14.86;66.51
69574;BME280;62840;52.366;5.980;2023-04-21T12:51:12;101210.50;;;15.05;66.27
69574;BME280;62840;52.366;5.980;2023-04-21T12:53:38;101206.19;;;15.22;66.12
69574;BME280;62840;52.366;5.980;2023-04-21T12:56:05;101204.16;;;15.34;65.89
69574;BME280;62840;52.366;5.980;2023-04-21T12:58:31;101208.94;;;15.40;65.39
69574;BME280;62840;52.366;5.980;2023-04-21T13:00:58;101210.03;;;15.47;65.41
69574;BME280;62840;52.366;5.980;2023-04-21T13:03:24;101194.06;;;15.63;65.35
69574;BME280;62840;52.366;5.980;2023-04-21T13:05:52;101195.97;;;15.81;65.48
69574;BME280;62840;52.366;5.980;2023-04-21T13:08:23;101192.75;;;15.95;65.33
69574;BME280;62840;52.366;5.980;2023-04-21T13:10:53;101191.84;;;16.04;64.44